Time;durP1;ratioP1;P1;durP2;ratioP2;P2;SDS_P1;SDS_P2;PMS_P1;PMS_P2;Temp;Humidity;BMP_temperature;BMP_pressure;BME280_temperature;BME280_humidity;BME280_pressure;Samples;Min_cycle;Max_cycle;Signal;HPM_P1;HPM_P2
2022/10/04 00:00:49;;;;;;;8.47;6.37;;;;;;;;;;5098780;28;20227;-78
2022/10/04 00:03:24;;;;;;;10.00;6.17;;;;;;;;;;5103195;28;20179;-78
2022/10/04 00:05:53;;;;;;;11.60;6.40;;;;;;;;;;5097866;28;20178;-77
2022/10/04 00:08:33;;;;;;;8.63;6.40;;;;;;;;;;5103464;28;20181;-78
2022/10/04 00:11:04;;;;;;;9.07;6.23;;;;;;;;;;5097853;28;20176;-78
2022/10/04 00:13:29;;;;;;;13.20;7.03;;;;;;;;;;5093467;28;20205;-78
2022/10/04 00:15:55;;;;;;;11.83;6.53;;;;;;;;;;5100482;28;20206;-78
2022/10/04 00:18:20;;;;;;;7.53;6.13;;;;;;;;;;5098714;28;20178;-77
2022/10/04 00:20:54;;;;;;;10.73;6.80;;;;;;;;;;5094257;28;20178;-77
2022/10/04 00:23:25;;;;;;;9.80;6.90;;;;;;;;;;5096985;28;20224;-77
2022/10/04 00:25:51;;;;;;;9.67;6.67;;;;;;;;;;5092449;28;20235;-78
2022/10/04 00:28:19;;;;;;;14.23;7.30;;;;;;;;;;5103062;28;20190;-77
2022/10/04 00:31:05;;;;;;;11.93;6.97;;;;;;;;;;5097266;28;20210;-77
2022/10/04 00:33:35;;;;;;;7.87;6.17;;;;;;;;;;5120706;28;20266;-78
2022/10/04 00:36:20;;;;;;;8.90;6.50;;;;;;;;;;5097827;28;20272;-77
2022/10/04 00:39:00;;;;;;;10.47;6.77;;;;;;;;;;5098919;28;20207;-78
2022/10/04 00:41:26;;;;;;;8.90;6.30;;;;;;;;;;5101967;28;20179;-78
2022/10/04 00:43:52;;;;;;;9.87;6.40;;;;;;;;;;5102727;28;20228;-78
2022/10/04 00:46:22;;;;;;;10.07;6.90;;;;;;;;;;5100643;28;20217;-78
2022/10/04 00:48:50;;;;;;;11.07;7.30;;;;;;;;;;5096908;28;20169;-77
2022/10/04 00:51:16;;;;;;;14.43;8.40;;;;;;;;;;5107633;28;20257;-78
2022/10/04 00:54:01;;;;;;;13.20;7.27;;;;;;;;;;5099602;28;20178;-78
2022/10/04 00:56:26;;;;;;;11.57;7.50;;;;;;;;;;5096369;28;20215;-77
2022/10/04 00:58:56;;;;;;;10.27;7.43;;;;;;;;;;5115557;27;20230;-78
2022/10/04 01:01:22;;;;;;;10.83;7.37;;;;;;;;;;5109984;27;20170;-78
2022/10/04 01:03:50;;;;;;;12.63;7.30;;;;;;;;;;5128076;27;20195;-78
2022/10/04 01:06:18;;;;;;;9.00;6.90;;;;;;;;;;5099080;28;20191;-78
2022/10/04 01:08:46;;;;;;;8.70;6.57;;;;;;;;;;5101394;27;20213;-78
2022/10/04 01:11:14;;;;;;;14.00;7.03;;;;;;;;;;5105797;27;20518;-78
2022/10/04 01:13:44;;;;;;;11.53;7.33;;;;;;;;;;5124498;27;20247;-78
2022/10/04 01:16:15;;;;;;;12.67;7.07;;;;;;;;;;5111283;27;20237;-78
2022/10/04 01:18:40;;;;;;;7.20;6.30;;;;;;;;;;5100281;27;20306;-78
2022/10/04 01:21:09;;;;;;;8.60;6.70;;;;;;;;;;5110557;27;20190;-78
2022/10/04 01:23:45;;;;;;;10.70;6.43;;;;;;;;;;5099866;27;20209;-78
2022/10/04 01:26:36;;;;;;;9.70;6.57;;;;;;;;;;5122534;27;20182;-78
2022/10/04 01:29:10;;;;;;;8.07;6.10;;;;;;;;;;5101991;28;20215;-78
2022/10/04 01:31:38;;;;;;;6.17;5.57;;;;;;;;;;5112270;27;20170;-78
2022/10/04 01:34:04;;;;;;;10.77;6.40;;;;;;;;;;5102702;27;20280;-77
2022/10/04 01:36:29;;;;;;;10.70;6.20;;;;;;;;;;5120770;27;20261;-78
2022/10/04 01:38:55;;;;;;;6.33;5.70;;;;;;;;;;5102802;27;20193;-78
2022/10/04 01:41:24;;;;;;;8.53;5.57;;;;;;;;;;5108846;27;20230;-78
2022/10/04 01:43:51;;;;;;;8.17;6.23;;;;;;;;;;5120887;27;20267;-78
2022/10/04 01:46:19;;;;;;;8.03;5.83;;;;;;;;;;5110399;27;20177;-78
2022/10/04 01:48:46;;;;;;;10.77;6.40;;;;;;;;;;5114358;27;20186;-78
2022/10/04 01:51:11;;;;;;;8.33;6.00;;;;;;;;;;5108455;27;20191;-77
2022/10/04 01:53:43;;;;;;;11.53;6.43;;;;;;;;;;5127304;27;20182;-78
2022/10/04 01:56:13;;;;;;;11.23;6.83;;;;;;;;;;5110002;27;20205;-78
2022/10/04 01:58:44;;;;;;;6.87;6.23;;;;;;;;;;5102327;28;20253;-78
2022/10/04 02:01:18;;;;;;;12.67;7.10;;;;;;;;;;5100056;28;20197;-78
2022/10/04 02:04:07;;;;;;;9.07;6.40;;;;;;;;;;5102778;28;20268;-78
2022/10/04 02:06:41;;;;;;;8.87;6.67;;;;;;;;;;5090537;28;20188;-78
2022/10/04 02:09:08;;;;;;;7.97;6.33;;;;;;;;;;5097301;28;20209;-78
2022/10/04 02:11:35;;;;;;;9.57;7.77;;;;;;;;;;5102244;28;20208;-78
2022/10/04 02:14:00;;;;;;;11.83;6.20;;;;;;;;;;5105733;28;20275;-78
2022/10/04 02:16:26;;;;;;;10.43;6.57;;;;;;;;;;5108242;28;20243;-78
2022/10/04 02:18:52;;;;;;;7.30;6.37;;;;;;;;;;5107449;27;20267;-78
2022/10/04 02:21:18;;;;;;;8.70;6.37;;;;;;;;;;5107246;27;20182;-78
2022/10/04 02:23:43;;;;;;;12.23;6.40;;;;;;;;;;5098137;28;20175;-78
2022/10/04 02:26:09;;;;;;;9.57;6.70;;;;;;;;;;5105825;28;20178;-77
2022/10/04 02:28:35;;;;;;;8.77;6.70;;;;;;;;;;5101907;28;20570;-78
2022/10/04 02:33:47;;;;;;;10.43;5.63;;;;;;;;;;5094761;28;20250;-78
2022/10/04 02:36:12;;;;;;;8.93;6.37;;;;;;;;;;5100086;28;20188;-78
2022/10/04 02:38:42;;;;;;;8.30;7.20;;;;;;;;;;5102270;28;20204;-78
2022/10/04 02:41:16;;;;;;;13.43;7.77;;;;;;;;;;5103183;28;20173;-78
2022/10/04 02:44:01;;;;;;;9.23;6.03;;;;;;;;;;5094909;28;20177;-77
2022/10/04 02:46:29;;;;;;;9.30;6.37;;;;;;;;;;5102315;28;20168;-77
2022/10/04 02:48:57;;;;;;;13.83;6.53;;;;;;;;;;5098236;28;20183;-78
2022/10/04 02:51:26;;;;;;;7.67;6.27;;;;;;;;;;5099621;28;20217;-78
2022/10/04 02:53:51;;;;;;;11.27;7.03;;;;;;;;;;5100950;28;20188;-78
2022/10/04 02:56:17;;;;;;;9.47;6.93;;;;;;;;;;5099329;28;20300;-78
2022/10/04 02:58:43;;;;;;;9.70;7.73;;;;;;;;;;5104644;28;20244;-77
2022/10/04 03:01:16;;;;;;;12.37;7.63;;;;;;;;;;5097647;28;20177;-78
2022/10/04 03:03:43;;;;;;;7.27;6.30;;;;;;;;;;5104954;28;20187;-77
2022/10/04 03:06:08;;;;;;;9.33;6.77;;;;;;;;;;5101753;28;20202;-78
2022/10/04 03:08:35;;;;;;;7.63;6.23;;;;;;;;;;5094642;28;20230;-78
2022/10/04 03:11:02;;;;;;;12.20;6.17;;;;;;;;;;5099831;28;20188;-77
2022/10/04 03:13:27;;;;;;;9.13;6.13;;;;;;;;;;5109884;28;20186;-78
2022/10/04 03:15:52;;;;;;;9.03;6.53;;;;;;;;;;5100823;27;20233;-76
2022/10/04 03:18:18;;;;;;;8.70;6.20;;;;;;;;;;5101163;28;20187;-78
2022/10/04 03:20:44;;;;;;;6.80;5.60;;;;;;;;;;5107258;27;20178;-78
2022/10/04 03:23:10;;;;;;;8.60;5.50;;;;;;;;;;5101482;28;20205;-78
2022/10/04 03:25:45;;;;;;;7.33;5.87;;;;;;;;;;5096899;28;20176;-78
2022/10/04 03:28:11;;;;;;;8.50;5.37;;;;;;;;;;5096825;28;20273;-78
2022/10/04 03:30:36;;;;;;;9.40;6.10;;;;;;;;;;5095167;28;20188;-78
2022/10/04 03:33:03;;;;;;;12.33;5.93;;;;;;;;;;5098186;28;20209;-78
2022/10/04 03:35:31;;;;;;;9.73;5.90;;;;;;;;;;5099063;28;20180;-78
2022/10/04 03:37:56;;;;;;;8.70;6.03;;;;;;;;;;5095515;28;20180;-78
2022/10/04 03:40:26;;;;;;;7.93;5.60;;;;;;;;;;5099501;28;20240;-77
2022/10/04 03:42:51;;;;;;;9.47;5.90;;;;;;;;;;5096507;28;20210;-77
2022/10/04 03:45:17;;;;;;;9.33;6.10;;;;;;;;;;5096489;28;20211;-77
2022/10/04 03:47:44;;;;;;;9.20;6.17;;;;;;;;;;5100603;28;20173;-78
2022/10/04 03:50:18;;;;;;;12.57;6.43;;;;;;;;;;5101926;28;20239;-77
2022/10/04 03:52:54;;;;;;;7.87;6.57;;;;;;;;;;5100517;28;20185;-77
2022/10/04 03:55:21;;;;;;;8.90;5.77;;;;;;;;;;5102995;28;20284;-78
2022/10/04 03:57:46;;;;;;;14.17;6.70;;;;;;;;;;5099921;28;20228;-77
2022/10/04 04:00:17;;;;;;;8.07;5.33;;;;;;;;;;5103306;28;20216;-77
2022/10/04 04:02:45;;;;;;;10.10;5.70;;;;;;;;;;5104053;27;20179;-78
2022/10/04 04:05:28;;;;;;;9.57;5.50;;;;;;;;;;5107531;27;20198;-77
2022/10/04 04:07:53;;;;;;;11.47;5.90;;;;;;;;;;5119643;28;20180;-78
2022/10/04 04:10:25;;;;;;;8.83;6.03;;;;;;;;;;5101031;28;20233;-78
2022/10/04 04:12:54;;;;;;;7.13;5.90;;;;;;;;;;5096462;28;20221;-78
2022/10/04 04:15:19;;;;;;;7.53;5.30;;;;;;;;;;5104650;28;20222;-78
2022/10/04 04:17:45;;;;;;;6.93;5.30;;;;;;;;;;5100941;28;20199;-78
2022/10/04 04:20:23;;;;;;;9.77;5.03;;;;;;;;;;5103470;28;20260;-78
2022/10/04 04:23:10;;;;;;;8.27;5.10;;;;;;;;;;5102077;28;20185;-78
2022/10/04 04:25:37;;;;;;;7.07;5.00;;;;;;;;;;5089807;28;20280;-77
2022/10/04 04:28:06;;;;;;;6.47;4.73;;;;;;;;;;5100710;28;20268;-78
2022/10/04 04:30:32;;;;;;;6.67;4.80;;;;;;;;;;5101245;28;20188;-78
2022/10/04 04:33:02;;;;;;;11.43;5.17;;;;;;;;;;5108422;28;20181;-77
2022/10/04 04:35:31;;;;;;;7.30;4.60;;;;;;;;;;5099591;28;20269;-78
2022/10/04 04:38:04;;;;;;;10.23;5.23;;;;;;;;;;5103651;28;20195;-78
2022/10/04 04:40:29;;;;;;;8.43;4.93;;;;;;;;;;5101296;28;20227;-77
2022/10/04 04:42:56;;;;;;;4.63;4.00;;;;;;;;;;5095720;28;20198;-78
2022/10/04 04:45:24;;;;;;;6.70;4.50;;;;;;;;;;5109356;28;20180;-77
2022/10/04 04:47:50;;;;;;;6.93;5.17;;;;;;;;;;5100399;28;20208;-78
2022/10/04 04:50:18;;;;;;;11.37;5.97;;;;;;;;;;5099707;28;20192;-77
2022/10/04 04:52:44;;;;;;;10.40;5.23;;;;;;;;;;5099639;28;20190;-78
2022/10/04 04:55:18;;;;;;;6.03;5.43;;;;;;;;;;5098397;28;20194;-79
2022/10/04 04:57:43;;;;;;;6.37;5.50;;;;;;;;;;5100903;28;20186;-78
2022/10/04 05:00:14;;;;;;;9.10;5.30;;;;;;;;;;5102723;28;20223;-78
2022/10/04 05:02:49;;;;;;;6.00;4.67;;;;;;;;;;5101289;28;20183;-78
2022/10/04 05:05:22;;;;;;;8.80;5.20;;;;;;;;;;5087438;28;20267;-78
2022/10/04 05:07:48;;;;;;;7.60;5.37;;;;;;;;;;5104076;28;20184;-78
2022/10/04 05:10:20;;;;;;;9.10;4.93;;;;;;;;;;5101203;28;20178;-77
2022/10/04 05:12:45;;;;;;;10.57;5.97;;;;;;;;;;5101293;28;20243;-77
2022/10/04 05:15:11;;;;;;;6.80;4.77;;;;;;;;;;5099272;28;20278;-78
2022/10/04 05:17:37;;;;;;;6.97;5.30;;;;;;;;;;5100174;28;20215;-77
2022/10/04 05:20:03;;;;;;;6.93;4.90;;;;;;;;;;5111105;28;20220;-77
2022/10/04 05:22:29;;;;;;;7.60;5.83;;;;;;;;;;5107343;27;20174;-76
2022/10/04 05:24:57;;;;;;;8.97;4.50;;;;;;;;;;5107249;27;20181;-77
2022/10/04 05:27:39;;;;;;;7.80;4.93;;;;;;;;;;5125227;27;20219;-77
2022/10/04 05:30:11;;;;;;;12.60;8.17;;;;;;;;;;5108907;28;20185;-77
2022/10/04 05:32:43;;;;;;;11.93;8.77;;;;;;;;;;5105868;27;20246;-77
2022/10/04 05:35:19;;;;;;;11.20;6.00;;;;;;;;;;5111026;27;20181;-77
2022/10/04 05:37:44;;;;;;;12.30;5.67;;;;;;;;;;5107879;28;20182;-77
2022/10/04 05:40:10;;;;;;;9.10;5.13;;;;;;;;;;5111151;27;20204;-77
2022/10/04 05:42:37;;;;;;;6.70;5.03;;;;;;;;;;5107291;27;20175;-77
2022/10/04 05:45:12;;;;;;;14.30;7.23;;;;;;;;;;5108522;27;20260;-77
2022/10/04 05:47:39;;;;;;;7.40;4.90;;;;;;;;;;5107500;27;20238;-77
2022/10/04 05:50:05;;;;;;;5.93;4.73;;;;;;;;;;5103567;28;20188;-77
2022/10/04 05:52:35;;;;;;;10.93;5.70;;;;;;;;;;5109833;27;20177;-77
2022/10/04 05:55:19;;;;;;;7.70;5.33;;;;;;;;;;5104966;27;20187;-77
2022/10/04 05:58:07;;;;;;;8.77;6.00;;;;;;;;;;5100189;28;20190;-77
2022/10/04 06:00:51;;;;;;;5.90;5.17;;;;;;;;;;5078085;27;20231;-77
2022/10/04 06:03:28;;;;;;;8.17;5.27;;;;;;;;;;5109561;27;20183;-77
2022/10/04 06:05:55;;;;;;;6.67;4.80;;;;;;;;;;5107344;27;20170;-77
2022/10/04 06:08:28;;;;;;;8.67;4.70;;;;;;;;;;5104671;27;20361;-77
2022/10/04 06:11:02;;;;;;;10.00;5.87;;;;;;;;;;5111587;27;20208;-77
2022/10/04 06:13:50;;;;;;;10.10;5.43;;;;;;;;;;5128494;27;20166;-77
2022/10/04 06:16:21;;;;;;;7.70;5.10;;;;;;;;;;5107051;27;20181;-77
2022/10/04 06:18:57;;;;;;;8.67;4.77;;;;;;;;;;5124497;27;20411;-77
2022/10/04 06:21:30;;;;;;;8.30;5.53;;;;;;;;;;5093696;27;20331;-77
2022/10/04 06:23:55;;;;;;;6.93;5.30;;;;;;;;;;5102190;27;20269;-77
2022/10/04 06:26:24;;;;;;;6.87;5.10;;;;;;;;;;5102005;27;20269;-77
2022/10/04 06:29:02;;;;;;;7.23;5.00;;;;;;;;;;5120692;27;20182;-77
2022/10/04 06:31:33;;;;;;;7.23;5.00;;;;;;;;;;5101295;28;20191;-78
2022/10/04 06:34:04;;;;;;;8.27;6.27;;;;;;;;;;5101179;27;20184;-77
2022/10/04 06:36:38;;;;;;;8.87;5.43;;;;;;;;;;5109941;27;20285;-77
2022/10/04 06:39:09;;;;;;;9.60;4.90;;;;;;;;;;5096530;27;20209;-77
2022/10/04 06:41:37;;;;;;;7.43;4.83;;;;;;;;;;5101305;27;20203;-77
2022/10/04 06:44:11;;;;;;;7.10;5.67;;;;;;;;;;5105625;27;20174;-77
2022/10/04 06:46:42;;;;;;;11.53;5.53;;;;;;;;;;5102660;27;20169;-77
2022/10/04 06:49:10;;;;;;;9.50;6.23;;;;;;;;;;5104216;27;20180;-77
2022/10/04 06:51:35;;;;;;;8.13;5.77;;;;;;;;;;5109487;27;20187;-77
2022/10/04 06:54:07;;;;;;;10.00;6.43;;;;;;;;;;5104959;27;20189;-77
2022/10/04 06:56:58;;;;;;;9.33;6.43;;;;;;;;;;5106960;27;20179;-77
2022/10/04 06:59:36;;;;;;;7.17;5.23;;;;;;;;;;5093503;28;20280;-77
2022/10/04 07:02:07;;;;;;;7.43;4.77;;;;;;;;;;5102161;28;20179;-77
2022/10/04 07:04:43;;;;;;;8.37;5.33;;;;;;;;;;5094487;28;20273;-77
2022/10/04 07:07:25;;;;;;;10.17;4.70;;;;;;;;;;5095165;28;20178;-77
2022/10/04 07:09:53;;;;;;;6.43;5.00;;;;;;;;;;5097545;28;20184;-77
2022/10/04 07:12:18;;;;;;;5.30;4.53;;;;;;;;;;5104961;28;20186;-77
2022/10/04 07:14:44;;;;;;;6.97;5.30;;;;;;;;;;5101825;28;20181;-77
2022/10/04 07:17:16;;;;;;;7.23;5.53;;;;;;;;;;5098920;28;20183;-77
2022/10/04 07:19:44;;;;;;;8.80;4.70;;;;;;;;;;5098375;28;20233;-77
2022/10/04 07:22:20;;;;;;;9.77;6.13;;;;;;;;;;5095914;28;20179;-77
2022/10/04 07:25:10;;;;;;;7.67;6.30;;;;;;;;;;5098161;28;20176;-78
2022/10/04 07:29:19;;;;;;;6.23;5.10;;;;;;;;;;5098008;28;20190;-77
2022/10/04 07:30:35;;;;;;;7.77;5.23;;;;;;;;;;5100355;28;20267;-77
2022/10/04 07:33:00;;;;;;;5.60;4.97;;;;;;;;;;5109499;28;20168;-77
2022/10/04 07:35:46;;;;;;;6.77;4.20;;;;;;;;;;5099202;28;20206;-77
2022/10/04 07:38:12;;;;;;;5.97;5.37;;;;;;;;;;5099258;28;20173;-78
2022/10/04 07:40:40;;;;;;;8.40;4.70;;;;;;;;;;5101946;28;20194;-77
2022/10/04 07:43:08;;;;;;;7.70;4.80;;;;;;;;;;5102015;28;20175;-77
2022/10/04 07:45:36;;;;;;;6.97;4.73;;;;;;;;;;5100911;28;20263;-77
2022/10/04 07:48:15;;;;;;;5.03;4.50;;;;;;;;;;5103244;28;20196;-77
2022/10/04 07:50:51;;;;;;;7.13;4.53;;;;;;;;;;5101437;28;20198;-77
2022/10/04 07:53:23;;;;;;;6.80;4.60;;;;;;;;;;5106385;28;20161;-77
2022/10/04 07:55:53;;;;;;;6.57;4.97;;;;;;;;;;5100666;28;20179;-77
2022/10/04 07:58:37;;;;;;;5.43;4.60;;;;;;;;;;5098258;28;20248;-77
2022/10/04 08:01:05;;;;;;;9.73;5.30;;;;;;;;;;5100967;28;20230;-78
2022/10/04 08:03:46;;;;;;;5.50;4.33;;;;;;;;;;5102041;28;20172;-77
2022/10/04 08:06:15;;;;;;;4.60;4.20;;;;;;;;;;5101927;28;20173;-78
2022/10/04 08:08:59;;;;;;;6.80;4.57;;;;;;;;;;5099538;28;20179;-77
2022/10/04 08:11:37;;;;;;;6.17;4.60;;;;;;;;;;5102308;28;20172;-77
2022/10/04 08:14:21;;;;;;;7.07;4.40;;;;;;;;;;5099575;28;20160;-77
2022/10/04 08:16:58;;;;;;;5.43;4.03;;;;;;;;;;5103081;28;20176;-77
2022/10/04 08:19:38;;;;;;;5.50;5.00;;;;;;;;;;5101273;28;20199;-77
2022/10/04 08:22:23;;;;;;;5.20;4.70;;;;;;;;;;5099307;28;20180;-77
2022/10/04 08:24:55;;;;;;;5.10;4.57;;;;;;;;;;5093995;28;20230;-77
2022/10/04 08:29:41;;;;;;;5.83;4.73;;;;;;;;;;5094719;28;20204;-77
2022/10/04 08:30:39;;;;;;;6.33;5.27;;;;;;;;;;5098608;28;20183;-77
2022/10/04 08:33:09;;;;;;;4.87;4.37;;;;;;;;;;5104128;28;20172;-78
2022/10/04 08:35:36;;;;;;;7.10;4.13;;;;;;;;;;5098653;28;20169;-77
2022/10/04 08:38:17;;;;;;;6.20;4.63;;;;;;;;;;5101503;28;20183;-77
2022/10/04 08:40:45;;;;;;;6.77;4.50;;;;;;;;;;5101717;28;20239;-77
2022/10/04 08:43:19;;;;;;;9.00;4.73;;;;;;;;;;5096577;28;20260;-78
2022/10/04 08:46:03;;;;;;;6.13;4.10;;;;;;;;;;5103754;28;20179;-77
2022/10/04 08:48:48;;;;;;;7.37;4.00;;;;;;;;;;5104366;28;20172;-77
2022/10/04 08:51:31;;;;;;;5.37;4.33;;;;;;;;;;5103288;28;20200;-77
2022/10/04 08:54:22;;;;;;;5.30;4.00;;;;;;;;;;5095990;28;20185;-77
2022/10/04 08:56:48;;;;;;;5.30;4.67;;;;;;;;;;5100636;28;20179;-78
2022/10/04 08:59:13;;;;;;;4.73;4.27;;;;;;;;;;5099653;28;20229;-77
2022/10/04 09:01:52;;;;;;;4.20;3.80;;;;;;;;;;5101846;28;20175;-83
2022/10/04 09:04:33;;;;;;;5.83;4.90;;;;;;;;;;5111107;28;20180;-77
2022/10/04 09:07:08;;;;;;;4.47;4.07;;;;;;;;;;5102602;28;20177;-77
2022/10/04 09:09:33;;;;;;;3.93;3.53;;;;;;;;;;5097920;28;20191;-77
2022/10/04 09:12:14;;;;;;;4.50;3.73;;;;;;;;;;5107599;28;20186;-77
2022/10/04 09:14:58;;;;;;;4.70;3.90;;;;;;;;;;5109783;28;20180;-78
2022/10/04 09:17:34;;;;;;;5.03;3.90;;;;;;;;;;5111911;28;20181;-78
2022/10/04 09:20:19;;;;;;;4.13;3.60;;;;;;;;;;5105661;28;20285;-77
2022/10/04 09:22:45;;;;;;;3.83;3.50;;;;;;;;;;5105048;28;20175;-77
2022/10/04 09:25:20;;;;;;;4.67;3.93;;;;;;;;;;5110610;28;20182;-77
2022/10/04 09:27:57;;;;;;;5.53;3.70;;;;;;;;;;5113571;28;20180;-78
2022/10/04 09:30:43;;;;;;;3.83;3.53;;;;;;;;;;5104374;28;20186;-77
2022/10/04 09:33:17;;;;;;;5.23;4.23;;;;;;;;;;5107217;28;20177;-77
2022/10/04 09:35:49;;;;;;;4.67;4.27;;;;;;;;;;5106706;28;20183;-77
2022/10/04 09:38:34;;;;;;;5.00;3.97;;;;;;;;;;5112283;28;20212;-78
2022/10/04 09:41:25;;;;;;;4.80;3.87;;;;;;;;;;5100818;28;20190;-77
2022/10/04 09:44:11;;;;;;;6.13;4.90;;;;;;;;;;5089075;28;20217;-78
2022/10/04 09:46:50;;;;;;;4.63;4.07;;;;;;;;;;5107869;28;20185;-77
2022/10/04 09:49:21;;;;;;;5.73;4.00;;;;;;;;;;5106684;28;20187;-78
2022/10/04 09:52:05;;;;;;;6.67;4.00;;;;;;;;;;5108584;28;20194;-78
2022/10/04 09:54:33;;;;;;;4.87;4.03;;;;;;;;;;5102136;28;20178;-77
2022/10/04 09:57:02;;;;;;;4.30;3.90;;;;;;;;;;5099675;28;20175;-77
2022/10/04 09:59:31;;;;;;;6.23;4.40;;;;;;;;;;5118583;27;20266;-78
2022/10/04 10:01:59;;;;;;;4.10;3.70;;;;;;;;;;5109012;27;20175;-77
2022/10/04 10:04:39;;;;;;;5.30;3.70;;;;;;;;;;5110129;27;20205;-77
2022/10/04 10:07:14;;;;;;;5.17;3.83;;;;;;;;;;5113066;27;20170;-78
2022/10/04 10:15:29;;;;;;;3.80;3.50;;;;;;;;;;5125627;27;20246;-78
2022/10/04 10:18:13;;;;;;;5.37;4.57;;;;;;;;;;5107938;28;20178;-78
2022/10/04 10:20:58;;;;;;;4.00;3.70;;;;;;;;;;5129898;27;20206;-78
2022/10/04 10:23:31;;;;;;;4.00;3.20;;;;;;;;;;5101036;27;20176;-78
2022/10/04 10:26:02;;;;;;;3.87;3.53;;;;;;;;;;5109417;27;20188;-78
2022/10/04 10:28:41;;;;;;;5.57;3.50;;;;;;;;;;5101087;27;20266;-78
2022/10/04 10:31:25;;;;;;;3.90;3.50;;;;;;;;;;5107910;27;20266;-78
2022/10/04 10:34:10;;;;;;;4.93;3.63;;;;;;;;;;5104361;27;20184;-78
2022/10/04 10:36:54;;;;;;;4.07;3.07;;;;;;;;;;5113251;27;20263;-78
2022/10/04 10:39:38;;;;;;;3.70;3.20;;;;;;;;;;5109555;27;20200;-78
2022/10/04 10:42:22;;;;;;;4.30;3.77;;;;;;;;;;5124092;27;20179;-78
2022/10/04 10:44:50;;;;;;;4.47;3.57;;;;;;;;;;5110559;27;20243;-78
2022/10/04 10:47:30;;;;;;;4.63;3.03;;;;;;;;;;5109127;27;20183;-78
2022/10/04 10:49:55;;;;;;;3.77;3.30;;;;;;;;;;5107029;27;20173;-78
2022/10/04 10:52:39;;;;;;;3.23;2.93;;;;;;;;;;5106551;27;20223;-78
2022/10/04 10:55:06;;;;;;;3.90;2.97;;;;;;;;;;5108186;28;20210;-78
2022/10/04 10:57:50;;;;;;;3.73;3.40;;;;;;;;;;5101832;27;20209;-78
2022/10/04 11:00:51;;;;;;;4.10;3.13;;;;;;;;;;5102495;27;20212;-78
2022/10/04 11:03:16;;;;;;;3.47;3.17;;;;;;;;;;5010307;28;20175;-78
2022/10/04 11:05:42;;;;;;;4.07;3.00;;;;;;;;;;5013639;28;20273;-78
2022/10/04 11:08:34;;;;;;;3.83;3.43;;;;;;;;;;5017478;28;20202;-78
2022/10/04 11:11:00;;;;;;;3.43;2.93;;;;;;;;;;5004965;28;20192;-78
2022/10/04 11:13:47;;;;;;;3.07;2.80;;;;;;;;;;5010763;28;20188;-78
2022/10/04 11:16:20;;;;;;;3.30;3.00;;;;;;;;;;5027630;28;20183;-78
2022/10/04 11:19:12;;;;;;;3.03;2.70;;;;;;;;;;5023944;28;20342;-78
2022/10/04 11:22:05;;;;;;;3.10;2.80;;;;;;;;;;5018784;28;20224;-79
2022/10/04 11:24:54;;;;;;;3.00;2.70;;;;;;;;;;5029111;28;20211;-78
2022/10/04 11:27:31;;;;;;;3.70;3.37;;;;;;;;;;5036715;28;20175;-78
2022/10/04 11:30:08;;;;;;;2.53;2.33;;;;;;;;;;5020701;28;20199;-78
2022/10/04 11:32:34;;;;;;;2.50;2.30;;;;;;;;;;5011590;28;20203;-78
2022/10/04 11:35:28;;;;;;;5.40;3.10;;;;;;;;;;5038607;28;20203;-78
2022/10/04 11:38:03;;;;;;;5.00;2.93;;;;;;;;;;5082344;28;20233;-78
2022/10/04 11:40:39;;;;;;;2.87;2.60;;;;;;;;;;5112694;27;20267;-78
2022/10/04 11:43:34;;;;;;;2.63;2.43;;;;;;;;;;5100403;28;20180;-78
2022/10/04 11:46:18;;;;;;;3.07;2.60;;;;;;;;;;5064303;28;20202;-78
2022/10/04 11:48:52;;;;;;;3.53;2.40;;;;;;;;;;5099975;27;20270;-78
2022/10/04 11:51:36;;;;;;;4.40;2.83;;;;;;;;;;5111005;28;20202;-78
2022/10/04 11:54:26;;;;;;;3.37;2.80;;;;;;;;;;5111533;27;20175;-78
2022/10/04 11:57:03;;;;;;;2.80;2.53;;;;;;;;;;5106270;28;20171;-78
2022/10/04 11:59:28;;;;;;;2.37;2.17;;;;;;;;;;5131090;27;20234;-79
2022/10/04 12:02:05;;;;;;;2.97;2.53;;;;;;;;;;5103645;28;20172;-78
2022/10/04 12:04:34;;;;;;;3.03;2.77;;;;;;;;;;5103294;28;20180;-78
2022/10/04 12:07:09;;;;;;;3.37;3.07;;;;;;;;;;5114309;27;20237;-78
2022/10/04 12:10:03;;;;;;;2.43;2.17;;;;;;;;;;5105400;28;20175;-78
2022/10/04 12:12:38;;;;;;;2.50;2.30;;;;;;;;;;5104024;28;20189;-78
2022/10/04 12:15:04;;;;;;;3.00;2.70;;;;;;;;;;5110664;28;20186;-79
2022/10/04 12:17:42;;;;;;;6.13;2.37;;;;;;;;;;5110787;28;20189;-79
2022/10/04 12:20:24;;;;;;;2.80;2.23;;;;;;;;;;5113761;28;20235;-79
2022/10/04 12:23:08;;;;;;;3.83;2.30;;;;;;;;;;5100854;28;20184;-78
2022/10/04 12:25:43;;;;;;;2.50;2.30;;;;;;;;;;5105233;28;20192;-79
2022/10/04 12:28:14;;;;;;;2.97;2.70;;;;;;;;;;5104519;28;20255;-79
2022/10/04 12:31:03;;;;;;;2.50;2.30;;;;;;;;;;5110799;28;20205;-79
2022/10/04 12:33:36;;;;;;;2.53;2.13;;;;;;;;;;5114842;27;20180;-79
2022/10/04 12:36:07;;;;;;;12.70;6.47;;;;;;;;;;5112494;27;20174;-79
2022/10/04 12:38:36;;;;;;;2.33;2.20;;;;;;;;;;5113649;27;20190;-79
2022/10/04 12:41:14;;;;;;;2.47;2.27;;;;;;;;;;5136571;27;20199;-79
2022/10/04 12:43:42;;;;;;;3.67;3.10;;;;;;;;;;5129118;27;20174;-78
2022/10/04 12:46:28;;;;;;;2.23;2.10;;;;;;;;;;5114856;27;20181;-79
2022/10/04 12:48:53;;;;;;;2.17;2.00;;;;;;;;;;5103174;27;20186;-79
2022/10/04 12:51:35;;;;;;;4.33;1.80;;;;;;;;;;5129050;27;20198;-79
2022/10/04 12:54:20;;;;;;;2.10;2.00;;;;;;;;;;5108316;27;20170;-79
2022/10/04 12:56:51;;;;;;;2.07;1.97;;;;;;;;;;5109760;27;20181;-79
2022/10/04 12:59:19;;;;;;;3.23;1.70;;;;;;;;;;5109716;28;20260;-79
2022/10/04 13:01:48;;;;;;;2.90;1.97;;;;;;;;;;5106548;28;20206;-79
2022/10/04 13:04:28;;;;;;;3.50;1.97;;;;;;;;;;5107106;28;20202;-79
2022/10/04 13:06:59;;;;;;;2.43;2.23;;;;;;;;;;5099350;28;20179;-78
2022/10/04 13:09:24;;;;;;;1.63;1.53;;;;;;;;;;5106142;28;20190;-79
2022/10/04 13:12:02;;;;;;;2.70;1.80;;;;;;;;;;5111939;28;20185;-79
2022/10/04 13:14:40;;;;;;;2.10;1.90;;;;;;;;;;5106296;28;20211;-79
2022/10/04 13:17:08;;;;;;;1.70;1.60;;;;;;;;;;5107752;28;20180;-79
2022/10/04 13:19:37;;;;;;;2.20;1.60;;;;;;;;;;5111362;28;20241;-78
2022/10/04 13:22:21;;;;;;;4.23;2.00;;;;;;;;;;5101524;28;20173;-78
2022/10/04 13:24:56;;;;;;;1.53;1.43;;;;;;;;;;5107676;28;20270;-79
2022/10/04 13:27:28;;;;;;;1.67;1.57;;;;;;;;;;5104565;28;20170;-81
2022/10/04 13:30:01;;;;;;;1.83;1.60;;;;;;;;;;5097415;28;20241;-73
2022/10/04 13:32:46;;;;;;;1.80;1.70;;;;;;;;;;5098281;28;20187;-73
2022/10/04 13:35:20;;;;;;;5.03;4.53;;;;;;;;;;5071704;28;20198;-73
2022/10/04 13:37:49;;;;;;;5.90;5.40;;;;;;;;;;5094406;28;20182;-73
2022/10/04 13:40:32;;;;;;;4.13;3.83;;;;;;;;;;5105676;28;20227;-74
2022/10/04 13:43:16;;;;;;;3.60;3.30;;;;;;;;;;5122799;27;20180;-73
2022/10/04 13:45:48;;;;;;;2.77;1.80;;;;;;;;;;5109837;28;20212;-73
2022/10/04 13:48:33;;;;;;;1.83;1.63;;;;;;;;;;5103432;28;20179;-73
2022/10/04 13:51:04;;;;;;;3.10;1.83;;;;;;;;;;5099398;28;20279;-73
2022/10/04 13:56:38;;;;;;;1.63;1.53;;;;;;;;;;5099222;28;20193;-73
2022/10/04 13:59:03;;;;;;;1.50;1.40;;;;;;;;;;5105677;27;20301;-73
2022/10/04 14:01:35;;;;;;;2.63;1.50;;;;;;;;;;5104582;27;20190;-73
2022/10/04 14:04:03;;;;;;;3.10;1.63;;;;;;;;;;5108681;27;20213;-73
2022/10/04 14:06:45;;;;;;;1.97;1.60;;;;;;;;;;5125169;27;20191;-73
2022/10/04 14:09:12;;;;;;;1.43;1.30;;;;;;;;;;5125804;27;20182;-74
2022/10/04 14:11:37;;;;;;;1.40;1.30;;;;;;;;;;5109279;27;20191;-74
2022/10/04 14:14:05;;;;;;;1.43;1.33;;;;;;;;;;5125149;27;20181;-74
2022/10/04 14:17:00;;;;;;;1.17;1.17;;;;;;;;;;5107009;27;20213;-74
2022/10/04 14:19:45;;;;;;;1.63;1.13;;;;;;;;;;5115158;27;20209;-74
2022/10/04 14:22:10;;;;;;;2.40;1.57;;;;;;;;;;5127902;27;20182;-74
2022/10/04 14:24:54;;;;;;;2.10;1.53;;;;;;;;;;5119427;27;20178;-73
2022/10/04 14:27:37;;;;;;;1.90;1.57;;;;;;;;;;5111073;27;20245;-74
2022/10/04 14:30:06;;;;;;;1.87;1.67;;;;;;;;;;5099248;27;20189;-73
2022/10/04 14:32:47;;;;;;;1.50;1.40;;;;;;;;;;5107173;27;20187;-73
2022/10/04 14:35:22;;;;;;;2.80;1.57;;;;;;;;;;5105581;27;20181;-73
2022/10/04 14:38:00;;;;;;;1.50;1.40;;;;;;;;;;5125887;27;20173;-73
2022/10/04 14:40:39;;;;;;;1.50;1.40;;;;;;;;;;5119819;27;20210;-74
2022/10/04 14:43:15;;;;;;;1.63;1.20;;;;;;;;;;5104911;27;20187;-73
2022/10/04 14:45:47;;;;;;;2.03;1.70;;;;;;;;;;5123675;27;20179;-73
2022/10/04 14:48:31;;;;;;;1.67;1.57;;;;;;;;;;5106138;27;20177;-73
2022/10/04 14:51:02;;;;;;;2.63;1.50;;;;;;;;;;5104164;27;20209;-74
2022/10/04 14:54:02;;;;;;;1.70;1.60;;;;;;;;;;5123869;27;20212;-73
2022/10/04 14:56:38;;;;;;;1.80;1.70;;;;;;;;;;5102089;27;20194;-73
2022/10/04 14:59:23;;;;;;;1.40;1.30;;;;;;;;;;5118405;27;20216;-73
2022/10/04 15:02:07;;;;;;;5.47;2.00;;;;;;;;;;5099011;27;20201;-74
2022/10/04 15:04:47;;;;;;;1.97;1.70;;;;;;;;;;5121777;27;20177;-74
2022/10/04 15:07:21;;;;;;;2.97;2.50;;;;;;;;;;5128928;27;20187;-73
2022/10/04 15:09:56;;;;;;;2.20;2.00;;;;;;;;;;5099196;27;20263;-74
2022/10/04 15:12:23;;;;;;;2.47;1.80;;;;;;;;;;5092578;27;20184;-73
2022/10/04 15:15:10;;;;;;;3.03;2.37;;;;;;;;;;5111474;27;20183;-74
2022/10/04 15:17:39;;;;;;;2.10;1.90;;;;;;;;;;5093703;27;20231;-74
2022/10/04 15:20:18;;;;;;;2.73;1.70;;;;;;;;;;5116572;27;20242;-74
2022/10/04 15:22:48;;;;;;;3.23;2.63;;;;;;;;;;5115441;27;20232;-74
2022/10/04 15:25:32;;;;;;;3.20;1.80;;;;;;;;;;5099829;27;20167;-74
2022/10/04 15:27:57;;;;;;;2.50;2.10;;;;;;;;;;5092441;27;20185;-73
2022/10/04 15:30:41;;;;;;;3.63;1.90;;;;;;;;;;5097983;27;20182;-73